Saratoga, CA (95070)

2:58 PM PST on December 04, 2016 (GMT -0800)
Scotland Dr. near Glasgow Dr. | | Change Station

Elev 375 ft 37.27 °N, 122.02 °W | Updated 14 seconds ago

Mostly Cloudy
Mostly Cloudy
60.3 °F
Feels Like 60.3 °F
N
1.7
Wind Variable Wind from NNW
Gusts 3.5 mph

Today
High -- | Low -- °F
--% Chance of Precip.
Yesterday
High -- | Low -- °F
Precip. -- in
Pressure 30.14 in
Visibility 10.0 miles
Clouds Few 5000 ft
Scattered Clouds 12000 ft
Mostly Cloudy 17000 ft
Dew Point 47 °F
Humidity 61%
Rainfall 0.00 in
Snow Depth Not available.
7:06 AM 4:50 PM
Waxing Crescent, 26% visible
METAR KSJC 042253Z 29007KT 10SM FEW050 SCT120 BKN170 16/06 A3014 RMK AO2 SLP204 T01610056
Pressure 30.14 in
Visibility 10.0 miles
Clouds Few 5000 ft
Scattered Clouds 12000 ft
Mostly Cloudy 17000 ft
Dew Point 47 °F
Humidity 61%
Rainfall 0.00 in
Snow Depth Not available.
7:06 AM 4:50 PM
Waxing Crescent, 26% visible
METAR KSJC 042253Z 29007KT 10SM FEW050 SCT120 BKN170 16/06 A3014 RMK AO2 SLP204 T01610056

10-Day Weather Forecast

Almanac

Astronomy

Dec. 04, 2016 Rise Set
Actual Time
Civil Twilight
Nautical Twilight
Astronomical Twilight
Moon
Length of Visible Light
Length of Day
Tomorrow will be .
, % of the Moon is Illuminated

Today's Extremes

State Highs State Lows

Community

WunderPhotos

Upload Photos

1,955,686 photos uploaded!

WunderBlog® & News

Nearby

Air Quality

  Air Quality AQ Index Pollutant
Not available.

Snow Depth

Station Depth Elevation

Earthquake Activity

City Distance Mag. Time & Date
Minimum magnitude displayed is 2.5.

Coastal Water Temperatures

Place Temperature

Stations

Nearby Weather Stations

Station Location Temp. Windchill Dew Point Humidity Wind Precip. Elev Updated Type
                   

Watches & Warnings

There are currently no watches in effect.